Time;durP1;ratioP1;P1;durP2;ratioP2;P2;SDS_P1;SDS_P2;PMS_P1;PMS_P2;Temp;Humidity;BMP_temperature;BMP_pressure;BME280_temperature;BME280_humidity;BME280_pressure;Samples;Min_cycle;Max_cycle;Signal;HPM_P1;HPM_P2
2022/05/04 00:00:31;;;;;;;4.75;1.30;;;9.80;99.90;;;;;;5068846;28;20044;-82
2022/05/04 00:02:56;;;;;;;9.90;1.42;;;9.20;99.90;;;;;;5066353;28;20056;-81
2022/05/04 00:05:22;;;;;;;12.60;1.73;;;9.50;99.90;;;;;;5068808;28;20037;-81
2022/05/04 00:07:48;;;;;;;8.52;1.98;;;8.60;99.90;;;;;;5068195;28;20044;-81
2022/05/04 00:10:13;;;;;;;10.88;0.98;;;8.60;99.90;;;;;;5068745;28;20492;-82
2022/05/04 00:12:39;;;;;;;7.18;1.30;;;8.60;99.90;;;;;;5067438;28;20084;-81
2022/05/04 00:15:06;;;;;;;8.73;1.23;;;8.50;99.90;;;;;;5066766;28;20045;-81
2022/05/04 00:17:31;;;;;;;9.15;1.17;;;8.60;99.90;;;;;;5068513;28;20032;-81
2022/05/04 00:19:57;;;;;;;6.30;1.15;;;8.50;99.90;;;;;;5068062;28;20059;-81
2022/05/04 00:22:26;;;;;;;5.80;1.17;;;8.60;99.90;;;;;;5068632;28;20134;-81
2022/05/04 00:24:51;;;;;;;8.38;1.05;;;8.50;99.90;;;;;;5066130;28;20051;-81
2022/05/04 00:27:18;;;;;;;8.18;2.45;;;8.50;99.90;;;;;;5033689;28;20392;-82
2022/05/04 00:29:44;;;;;;;11.27;2.13;;;8.60;99.90;;;;;;5066161;28;20055;-82
2022/05/04 00:32:17;;;;;;;6.97;1.55;;;9.90;99.90;;;;;;5067953;28;20127;-82
2022/05/04 00:34:43;;;;;;;5.80;1.10;;;8.60;99.90;;;;;;5068090;28;20055;-82
2022/05/04 00:37:09;;;;;;;5.20;1.17;;;8.60;99.90;;;;;;5067363;28;20044;-81
2022/05/04 00:39:35;;;;;;;6.22;0.90;;;9.10;99.90;;;;;;5068627;28;20040;-81
2022/05/04 00:42:17;;;;;;;7.10;1.77;;;8.60;99.90;;;;;;5067097;28;20484;-81
2022/05/04 00:44:45;;;;;;;13.10;1.45;;;8.60;99.90;;;;;;5067865;28;20045;-81
2022/05/04 00:47:11;;;;;;;14.80;1.83;;;9.00;99.90;;;;;;5067955;28;20483;-82
2022/05/04 00:49:38;;;;;;;7.25;1.30;;;9.80;99.90;;;;;;5067591;28;20048;-82
2022/05/04 00:52:05;;;;;;;9.65;1.40;;;8.60;99.90;;;;;;5067668;28;20071;-82
2022/05/04 00:54:32;;;;;;;8.63;1.13;;;8.60;99.90;;;;;;5065758;28;20040;-82
2022/05/04 00:56:59;;;;;;;12.82;1.58;;;8.70;99.90;;;;;;5067759;28;20044;-82
2022/05/04 00:59:25;;;;;;;9.70;1.25;;;8.60;99.90;;;;;;5065816;28;20278;-81
2022/05/04 01:01:52;;;;;;;5.13;1.38;;;9.50;99.90;;;;;;5067765;28;20040;-82
2022/05/04 01:04:18;;;;;;;3.83;0.95;;;8.60;99.90;;;;;;5067311;28;20052;-82
2022/05/04 01:06:51;;;;;;;6.53;1.95;;;9.60;99.90;;;;;;5065872;28;20044;-82
2022/05/04 01:09:17;;;;;;;;;;;8.60;99.90;;;;;;5050074;28;20480;-81
2022/05/04 01:11:43;;;;;;;13.10;1.38;;;8.60;99.90;;;;;;5066746;28;19931;-81
2022/05/04 01:14:11;;;;;;;7.93;1.52;;;9.80;99.90;;;;;;5067867;28;20037;-82
2022/05/04 01:16:40;;;;;;;8.75;1.10;;;9.10;99.90;;;;;;5066725;28;20091;-81
2022/05/04 01:19:07;;;;;;;7.35;1.10;;;9.60;99.90;;;;;;5067467;28;20462;-81
2022/05/04 01:21:33;;;;;;;6.22;1.48;;;8.50;99.90;;;;;;5067308;28;20036;-81
2022/05/04 01:24:00;;;;;;;8.55;1.40;;;9.50;99.90;;;;;;5065498;28;20041;-82
2022/05/04 01:26:26;;;;;;;8.52;1.38;;;9.10;99.90;;;;;;5066251;28;20045;-82
2022/05/04 01:28:51;;;;;;;8.63;1.42;;;8.50;99.90;;;;;;5065039;28;20089;-81
2022/05/04 01:31:17;;;;;;;7.50;1.73;;;8.50;99.90;;;;;;5049452;28;20044;-81
2022/05/04 01:33:43;;;;;;;9.15;1.45;;;8.50;99.90;;;;;;5066259;28;20182;-82
2022/05/04 01:36:09;;;;;;;5.50;1.65;;;8.40;99.90;;;;;;5067145;28;20059;-82
2022/05/04 01:38:36;;;;;;;12.65;1.48;;;9.80;99.90;;;;;;5067171;28;20482;-82
2022/05/04 01:41:02;;;;;;;8.65;1.25;;;8.40;99.90;;;;;;5066081;28;20044;-82
2022/05/04 01:43:28;;;;;;;10.48;1.38;;;8.40;99.90;;;;;;5067191;28;20040;-82
2022/05/04 01:45:54;;;;;;;9.82;1.52;;;8.40;99.90;;;;;;5065110;28;20048;-81
2022/05/04 01:48:20;;;;;;;6.85;1.38;;;9.10;99.90;;;;;;5067072;28;20075;-80
2022/05/04 01:50:46;;;;;;;20.40;1.95;;;8.40;99.90;;;;;;5065499;28;20080;-81
2022/05/04 01:53:12;;;;;;;11.02;1.20;;;8.40;99.90;;;;;;5066883;28;20047;-81
2022/05/04 01:55:41;;;;;;;7.20;1.63;;;9.70;99.90;;;;;;5066150;28;20468;-80
2022/05/04 01:58:07;;;;;;;9.00;1.98;;;8.40;99.90;;;;;;5065683;28;20583;-81
2022/05/04 02:00:33;;;;;;;5.20;0.95;;;9.70;99.90;;;;;;5066752;28;20169;-81
2022/05/04 02:03:00;;;;;;;12.40;1.98;;;8.40;99.90;;;;;;5065585;28;20538;-81
2022/05/04 02:05:27;;;;;;;9.40;1.73;;;8.40;99.90;;;;;;5066829;28;20037;-80
2022/05/04 02:07:53;;;;;;;10.32;1.60;;;9.50;99.90;;;;;;5064542;28;20298;-81
2022/05/04 02:10:19;;;;;;;9.57;1.60;;;8.40;99.90;;;;;;5066340;28;20094;-81
2022/05/04 02:12:45;;;;;;;8.48;1.23;;;8.40;99.90;;;;;;5065894;28;20446;-81
2022/05/04 02:15:11;;;;;;;7.65;1.65;;;8.40;99.90;;;;;;5064035;28;20041;-81
2022/05/04 02:17:38;;;;;;;5.20;1.42;;;8.40;99.90;;;;;;5066143;28;20060;-81
2022/05/04 02:20:05;;;;;;;6.18;1.60;;;9.70;99.90;;;;;;5065108;28;20102;-81
2022/05/04 02:22:31;;;;;;;7.50;1.40;;;8.30;99.90;;;;;;5048149;28;20480;-81
2022/05/04 02:24:57;;;;;;;5.78;1.33;;;9.00;99.90;;;;;;5065141;28;20063;-81
2022/05/04 02:27:23;;;;;;;6.68;1.48;;;8.30;99.90;;;;;;5066491;28;20460;-81
2022/05/04 02:29:49;;;;;;;7.70;2.55;;;9.40;99.90;;;;;;5064331;28;20152;-81
2022/05/04 02:32:15;;;;;;;10.50;1.55;;;8.40;99.90;;;;;;5063816;28;20045;-81
2022/05/04 02:40:11;;;;;;;7.90;1.73;;;8.40;99.90;;;;;;5064854;28;20352;-82
2022/05/04 02:42:37;;;;;;;8.82;1.20;;;8.40;99.90;;;;;;5065594;28;20439;-81
2022/05/04 02:45:05;;;;;;;6.65;1.60;;;8.40;99.90;;;;;;5063781;28;20198;-81
2022/05/04 02:47:31;;;;;;;11.65;1.48;;;8.40;99.90;;;;;;5066104;28;20059;-81
2022/05/04 02:49:57;;;;;;;7.53;1.30;;;8.30;99.90;;;;;;5064669;28;20037;-82
2022/05/04 02:52:22;;;;;;;7.75;1.38;;;8.30;99.90;;;;;;5047438;28;20060;-81
2022/05/04 02:54:48;;;;;;;6.18;1.20;;;8.30;99.90;;;;;;5064768;28;20467;-81
2022/05/04 02:57:14;;;;;;;5.85;0.98;;;8.30;99.90;;;;;;5064476;28;20037;-81
2022/05/04 02:59:39;;;;;;;4.28;1.20;;;8.30;99.90;;;;;;5063955;28;20417;-81
2022/05/04 03:04:50;;;;;;;6.40;1.60;;;9.00;99.90;;;;;;5065915;28;20514;-82
2022/05/04 03:07:15;;;;;;;6.88;1.52;;;9.30;99.90;;;;;;5064708;28;20049;-81
2022/05/04 03:09:41;;;;;;;7.97;1.00;;;9.60;99.90;;;;;;5064369;28;20047;-81
2022/05/04 03:12:07;;;;;;;5.40;1.23;;;8.60;99.90;;;;;;5063229;28;20058;-81
2022/05/04 03:14:33;;;;;;;5.35;0.90;;;8.30;99.90;;;;;;5065406;28;20040;-81
2022/05/04 03:16:58;;;;;;;8.65;1.20;;;8.30;99.90;;;;;;5065450;28;20468;-81
2022/05/04 03:19:25;;;;;;;6.95;1.30;;;9.10;99.90;;;;;;5064562;28;20044;-81
2022/05/04 03:21:52;;;;;;;7.03;1.15;;;8.30;99.90;;;;;;5064368;28;20484;-81
2022/05/04 03:24:18;;;;;;;9.60;1.10;;;8.30;99.90;;;;;;5064521;28;20067;-82
2022/05/04 03:26:44;;;;;;;5.85;0.95;;;7.40;99.90;;;;;;5063950;28;20044;-82
2022/05/04 03:29:10;;;;;;;5.22;1.10;;;8.30;99.90;;;;;;5064411;28;20056;-81
2022/05/04 03:31:36;;;;;;;5.65;0.85;;;8.80;99.90;;;;;;5065924;28;20426;-81
2022/05/04 03:34:03;;;;;;;4.93;0.82;;;8.30;99.90;;;;;;5069430;28;20044;-82
2022/05/04 03:36:29;;;;;;;7.32;1.23;;;8.30;99.90;;;;;;5068969;28;20035;-82
2022/05/04 03:38:55;;;;;;;7.15;1.20;;;9.30;99.90;;;;;;5069536;28;20033;-81
2022/05/04 03:41:21;;;;;;;5.55;1.05;;;9.50;99.90;;;;;;5068324;28;20544;-82
2022/05/04 03:43:47;;;;;;;4.75;1.45;;;8.30;99.90;;;;;;5051704;28;20080;-82
2022/05/04 03:46:15;;;;;;;7.80;1.00;;;8.20;99.90;;;;;;5068455;28;20127;-82
2022/05/04 03:48:42;;;;;;;5.93;1.20;;;8.90;99.90;;;;;;5068985;28;20043;-81
2022/05/04 03:51:09;;;;;;;5.05;1.27;;;8.80;99.90;;;;;;5068836;28;20057;-81
2022/05/04 03:53:34;;;;;;;4.72;1.10;;;9.10;99.90;;;;;;5068100;28;20604;-81
2022/05/04 03:56:00;;;;;;;7.18;1.00;;;8.20;99.90;;;;;;5067530;28;20131;-81
2022/05/04 03:58:26;;;;;;;9.85;1.27;;;8.20;99.90;;;;;;5067819;28;20045;-81
2022/05/04 04:00:52;;;;;;;5.65;0.80;;;8.20;99.90;;;;;;5069230;28;20048;-82
2022/05/04 04:03:17;;;;;;;3.40;0.75;;;8.20;99.90;;;;;;5066347;28;20112;-81
2022/05/04 04:05:43;;;;;;;5.65;1.20;;;8.20;99.90;;;;;;5068591;28;20508;-81
2022/05/04 04:08:09;;;;;;;4.20;0.98;;;8.10;99.90;;;;;;5066896;28;20084;-81
2022/05/04 04:10:34;;;;;;;14.27;1.92;;;8.10;99.90;;;;;;5068037;28;20044;-82
2022/05/04 04:13:00;;;;;;;9.23;1.30;;;9.20;99.90;;;;;;5068737;28;20044;-81
2022/05/04 04:15:26;;;;;;;4.55;0.77;;;8.60;99.90;;;;;;5067259;28;20098;-81
2022/05/04 04:17:51;;;;;;;10.05;1.13;;;8.10;99.90;;;;;;5068865;28;20048;-82
2022/05/04 04:23:01;;;;;;;8.77;0.95;;;8.70;99.90;;;;;;5066460;28;20074;-81
2022/05/04 04:25:27;;;;;;;7.18;1.23;;;9.20;99.90;;;;;;5067423;28;20048;-81
2022/05/04 04:27:53;;;;;;;5.78;0.88;;;8.20;99.90;;;;;;5067398;28;20058;-80
2022/05/04 04:30:20;;;;;;;4.28;0.90;;;8.70;99.90;;;;;;5068172;28;20037;-80
2022/05/04 04:32:45;;;;;;;3.55;0.75;;;8.20;99.90;;;;;;5069190;28;20098;-79
2022/05/04 04:35:11;;;;;;;4.30;1.08;;;9.60;99.90;;;;;;5071572;28;20048;-82
2022/05/04 04:37:37;;;;;;;4.88;0.90;;;9.30;99.90;;;;;;5068164;28;20052;-81
2022/05/04 04:40:03;;;;;;;4.28;0.77;;;9.00;99.90;;;;;;5068226;28;20041;-81
2022/05/04 04:42:28;;;;;;;7.55;1.48;;;8.20;99.90;;;;;;5068201;28;20078;-81
2022/05/04 04:44:54;;;;;;;8.55;1.02;;;9.50;99.90;;;;;;5067212;28;20478;-81
2022/05/04 04:47:20;;;;;;;4.32;0.98;;;8.20;99.90;;;;;;5068442;28;20040;-82
2022/05/04 04:49:45;;;;;;;7.43;1.10;;;8.30;99.90;;;;;;5065491;28;20032;-82
2022/05/04 04:52:11;;;;;;;6.20;1.00;;;8.60;99.90;;;;;;5066449;28;20056;-82
2022/05/04 04:54:37;;;;;;;5.75;1.08;;;9.10;99.90;;;;;;5067331;28;20047;-82
2022/05/04 04:57:03;;;;;;;13.50;1.45;;;9.10;99.90;;;;;;5067655;28;20946;-82
2022/05/04 04:59:29;;;;;;;8.65;1.17;;;8.40;99.90;;;;;;5068255;28;20056;-82
2022/05/04 05:01:54;;;;;;;4.40;0.77;;;8.40;99.90;;;;;;5067122;28;20041;-82
2022/05/04 05:04:20;;;;;;;5.53;1.00;;;8.40;99.90;;;;;;5066957;28;20403;-81
2022/05/04 05:06:46;;;;;;;7.30;1.00;;;9.70;99.90;;;;;;5065253;28;20495;-81
2022/05/04 05:09:11;;;;;;;6.38;0.98;;;8.50;99.90;;;;;;5068025;28;20048;-81
2022/05/04 05:11:37;;;;;;;6.85;2.25;;;9.80;99.90;;;;;;5066504;28;20041;-81
2022/05/04 05:16:48;;;;;;;5.25;0.98;;;8.50;99.90;;;;;;5067929;28;20079;-82
2022/05/04 05:19:13;;;;;;;5.70;0.88;;;8.50;99.90;;;;;;5066826;28;20052;-82
2022/05/04 05:21:39;;;;;;;11.05;1.65;;;8.70;99.90;;;;;;5067708;28;20442;-81
2022/05/04 05:24:05;;;;;;;7.38;1.10;;;9.50;99.90;;;;;;5066137;28;20055;-82
2022/05/04 05:26:31;;;;;;;7.95;1.27;;;8.60;99.90;;;;;;5067999;28;20554;-82
2022/05/04 05:28:57;;;;;;;5.18;1.13;;;8.60;99.90;;;;;;5066607;28;20132;-82
2022/05/04 05:31:23;;;;;;;7.38;1.23;;;9.70;99.90;;;;;;5065856;28;20447;-82
2022/05/04 05:33:48;;;;;;;8.00;0.90;;;9.40;99.90;;;;;;5067362;28;20395;-81
2022/05/04 05:36:14;;;;;;;10.63;1.02;;;8.70;99.90;;;;;;5066424;28;20399;-82
2022/05/04 05:38:40;;;;;;;4.43;0.90;;;8.70;99.90;;;;;;5065908;28;20203;-83
2022/05/04 05:41:06;;;;;;;9.70;1.02;;;8.70;99.90;;;;;;5065972;28;20065;-82
2022/05/04 05:43:32;;;;;;;6.38;0.85;;;10.10;99.90;;;;;;5067663;28;20044;-82
2022/05/04 05:45:57;;;;;;;3.58;1.10;;;9.60;99.90;;;;;;5064667;28;20049;-82
2022/05/04 05:48:23;;;;;;;6.30;1.00;;;8.80;99.90;;;;;;5065215;28;20048;-81
2022/05/04 05:50:49;;;;;;;6.13;1.17;;;9.00;99.90;;;;;;5067057;28;20143;-81
2022/05/04 05:53:15;;;;;;;3.40;0.93;;;8.90;99.90;;;;;;5047698;28;20082;-82
2022/05/04 05:55:41;;;;;;;4.22;0.85;;;10.30;99.90;;;;;;5065172;28;20044;-82
2022/05/04 05:58:06;;;;;;;9.80;1.27;;;10.20;99.90;;;;;;5065768;28;20041;-82
2022/05/04 06:00:32;;;;;;;8.70;1.13;;;9.00;99.90;;;;;;5065410;28;20048;-82
2022/05/04 06:02:58;;;;;;;5.63;0.77;;;10.30;99.90;;;;;;5065821;28;20110;-82
2022/05/04 06:05:24;;;;;;;8.40;1.42;;;9.70;99.90;;;;;;5066446;28;20072;-82
2022/05/04 06:07:50;;;;;;;7.78;1.30;;;10.20;99.90;;;;;;5066661;28;20048;-81
2022/05/04 06:10:16;;;;;;;5.88;0.73;;;9.20;99.90;;;;;;5065795;28;20044;-82
2022/05/04 06:12:41;;;;;;;5.75;1.00;;;9.20;99.90;;;;;;5066798;28;20048;-81
2022/05/04 06:15:08;;;;;;;5.68;0.70;;;9.30;99.90;;;;;;5065605;28;20072;-81
2022/05/04 06:17:34;;;;;;;5.68;1.00;;;9.30;99.90;;;;;;5049006;28;20082;-81
2022/05/04 06:20:00;;;;;;;6.90;1.15;;;10.50;99.90;;;;;;5065463;28;20131;-83
2022/05/04 06:22:25;;;;;;;11.60;1.67;;;9.40;99.90;;;;;;5066114;28;20127;-83
2022/05/04 06:24:51;;;;;;;8.55;0.95;;;9.50;99.80;;;;;;5066168;28;20403;-83
2022/05/04 06:27:17;;;;;;;1.80;0.73;;;9.60;99.90;;;;;;5065240;28;20078;-84
2022/05/04 06:35:11;;;;;;;9.10;1.50;;;9.70;99.40;;;;;;5064950;28;20048;-81
2022/05/04 06:37:37;;;;;;;9.45;1.08;;;9.90;99.20;;;;;;5064805;28;20066;-80
2022/05/04 06:40:06;;;;;;;8.13;1.25;;;10.90;99.40;;;;;;5065436;28;20041;-81
2022/05/04 06:42:32;;;;;;;4.10;1.00;;;9.80;99.10;;;;;;5064482;28;20040;-81
2022/05/04 06:44:58;;;;;;;14.38;1.10;;;10.50;99.10;;;;;;5064971;28;20047;-81
2022/05/04 06:47:24;;;;;;;9.32;1.48;;;9.90;98.90;;;;;;5066204;28;20470;-81
2022/05/04 06:49:49;;;;;;;6.28;0.90;;;10.00;98.80;;;;;;5063636;28;20043;-82
2022/05/04 06:52:15;;;;;;;3.95;1.05;;;10.40;98.60;;;;;;5064541;28;20064;-82
2022/05/04 06:54:42;;;;;;;4.25;1.15;;;10.30;98.70;;;;;;5067274;28;20048;-80
2022/05/04 06:57:08;;;;;;;10.10;1.55;;;10.60;98.90;;;;;;5065302;28;20130;-82
2022/05/04 06:59:34;;;;;;;3.53;0.88;;;10.20;98.50;;;;;;5064542;28;20048;-81
2022/05/04 07:01:59;;;;;;;4.55;0.77;;;10.20;97.80;;;;;;5065336;28;20043;-79
2022/05/04 07:04:25;;;;;;;5.18;0.85;;;10.30;97.90;;;;;;5066072;28;20044;-81
2022/05/04 07:06:51;;;;;;;3.80;1.15;;;10.30;97.80;;;;;;5063720;28;20051;-80
2022/05/04 07:09:17;;;;;;;4.75;0.93;;;10.40;97.50;;;;;;5066006;28;20044;-80
2022/05/04 07:11:43;;;;;;;4.25;0.75;;;10.50;97.20;;;;;;5065296;28;20032;-80
2022/05/04 07:14:08;;;;;;;1.98;0.95;;;11.60;97.30;;;;;;5065125;28;20479;-81
2022/05/04 07:16:34;;;;;;;3.72;0.60;;;11.30;96.90;;;;;;5065712;28;20037;-83
2022/05/04 07:19:00;;;;;;;3.03;0.90;;;10.50;96.90;;;;;;5064758;28;20119;-82
2022/05/04 07:21:25;;;;;;;5.75;0.98;;;11.00;97.00;;;;;;5065722;28;20040;-82
2022/05/04 07:23:51;;;;;;;5.28;0.82;;;10.70;96.80;;;;;;5064311;28;20132;-83
2022/05/04 07:26:17;;;;;;;6.18;1.00;;;10.80;96.30;;;;;;5065181;28;20076;-82
2022/05/04 07:28:42;;;;;;;8.07;1.00;;;12.20;96.20;;;;;;5064779;28;20045;-83
2022/05/04 07:31:08;;;;;;;4.75;0.70;;;10.90;95.70;;;;;;5064883;28;20506;-83
2022/05/04 07:33:34;;;;;;;12.63;1.42;;;10.90;95.30;;;;;;5064957;28;20491;-83
2022/05/04 07:35:59;;;;;;;8.43;1.30;;;10.90;95.10;;;;;;5062817;28;20040;-82
2022/05/04 07:38:25;;;;;;;5.22;1.10;;;10.90;94.70;;;;;;5065208;28;20044;-82
2022/05/04 07:43:35;;;;;;;7.07;1.10;;;11.30;94.50;;;;;;5065199;28;20049;-82
2022/05/04 07:46:01;;;;;;;2.75;1.00;;;11.00;94.50;;;;;;5064848;28;20178;-85
2022/05/04 07:48:26;;;;;;;4.82;0.88;;;11.10;94.60;;;;;;5063356;28;20057;-84
2022/05/04 07:50:52;;;;;;;3.60;1.25;;;11.10;94.30;;;;;;5030146;28;20514;-85
2022/05/04 07:53:18;;;;;;;7.68;0.80;;;11.40;94.00;;;;;;5064510;28;20045;-85
2022/05/04 07:55:44;;;;;;;4.93;0.90;;;11.20;93.70;;;;;;5065265;28;20059;-83
2022/05/04 07:58:10;;;;;;;3.63;1.20;;;11.10;93.60;;;;;;5063756;28;20044;-83
2022/05/04 08:06:04;;;;;;;6.68;1.05;;;11.40;93.40;;;;;;5062639;28;20531;-83
2022/05/04 08:08:30;;;;;;;4.35;1.10;;;11.50;93.30;;;;;;5063989;28;20063;-83
2022/05/04 08:10:57;;;;;;;4.00;0.90;;;12.30;93.20;;;;;;5064348;28;20566;-82
2022/05/04 08:13:23;;;;;;;5.03;1.00;;;11.70;92.30;;;;;;5065906;28;20049;-82
2022/05/04 08:15:48;;;;;;;2.42;0.75;;;11.70;91.70;;;;;;5046875;28;20040;-83
2022/05/04 08:18:14;;;;;;;5.97;1.05;;;11.70;91.80;;;;;;5065910;28;20047;-84
2022/05/04 08:20:40;;;;;;;5.82;1.00;;;11.70;91.30;;;;;;5034410;28;20537;-83
2022/05/04 08:23:06;;;;;;;9.43;1.50;;;11.80;91.30;;;;;;5068474;28;20624;-83
2022/05/04 08:25:32;;;;;;;8.40;1.00;;;11.90;90.90;;;;;;5067763;28;20041;-83
2022/05/04 08:27:58;;;;;;;4.38;0.82;;;12.70;90.50;;;;;;5067066;28;20049;-82
2022/05/04 08:30:23;;;;;;;6.05;0.95;;;11.80;90.30;;;;;;5069323;28;20056;-83
2022/05/04 08:32:50;;;;;;;6.20;1.08;;;11.70;90.50;;;;;;5066885;28;20056;-83
2022/05/04 08:35:17;;;;;;;5.03;1.08;;;12.50;90.80;;;;;;5050628;28;20048;-83
2022/05/04 08:37:43;;;;;;;5.45;1.48;;;12.40;90.80;;;;;;5068978;28;20400;-83
2022/05/04 08:40:10;;;;;;;4.88;0.93;;;11.80;90.40;;;;;;5067404;28;20051;-83
2022/05/04 08:42:44;;;;;;;7.50;1.25;;;11.80;90.60;;;;;;5068268;28;20503;-83
2022/05/04 08:45:11;;;;;;;6.82;1.00;;;12.50;90.50;;;;;;5067437;28;20049;-82
2022/05/04 08:47:39;;;;;;;6.45;1.10;;;11.90;90.80;;;;;;5067606;28;20044;-81
2022/05/04 08:50:15;;;;;;;2.97;0.80;;;12.70;90.60;;;;;;5066914;28;20103;-83
2022/05/04 08:52:51;;;;;;;9.43;1.52;;;12.10;90.30;;;;;;5067259;28;20101;-83
2022/05/04 08:55:18;;;;;;;2.70;0.60;;;12.70;90.50;;;;;;5066750;28;20051;-83
2022/05/04 08:57:43;;;;;;;10.77;1.55;;;12.40;89.70;;;;;;5065875;28;20070;-84
2022/05/04 09:00:10;;;;;;;5.07;0.88;;;12.40;88.90;;;;;;5066737;28;20132;-84
2022/05/04 09:02:38;;;;;;;3.60;0.95;;;12.50;88.40;;;;;;5066368;28;20194;-84
2022/05/04 09:05:18;;;;;;;4.93;0.95;;;12.50;87.70;;;;;;5066608;28;20056;-85
2022/05/04 09:07:47;;;;;;;7.05;0.93;;;12.60;85.80;;;;;;5067968;28;20546;-84
2022/05/04 09:10:26;;;;;;;5.15;1.00;;;12.60;86.80;;;;;;5048935;28;20055;-83
2022/05/04 09:12:54;;;;;;;5.63;0.90;;;12.60;83.00;;;;;;5066669;28;20052;-86
2022/05/04 09:15:28;;;;;;;8.20;1.73;;;12.60;86.50;;;;;;5049660;28;20430;-82
2022/05/04 09:18:06;;;;;;;4.22;1.00;;;12.50;84.90;;;;;;5067586;28;20602;-82
2022/05/04 09:20:58;;;;;;;6.70;1.40;;;12.60;83.30;;;;;;5049905;28;20048;-83
2022/05/04 09:23:29;;;;;;;7.87;0.93;;;13.40;83.60;;;;;;5048960;28;20092;-83
2022/05/04 09:26:05;;;;;;;4.05;0.70;;;12.70;84.30;;;;;;5050534;28;20515;-84
2022/05/04 09:28:31;;;;;;;5.07;1.00;;;13.60;81.40;;;;;;5051995;28;20051;-83
2022/05/04 09:31:15;;;;;;;3.00;0.95;;;12.80;83.60;;;;;;5068293;28;20048;-83
2022/05/04 09:33:40;;;;;;;5.18;0.95;;;12.80;80.10;;;;;;5049343;28;20048;-81
2022/05/04 09:36:06;;;;;;;4.13;1.10;;;12.90;84.40;;;;;;5066510;28;20054;-81
2022/05/04 09:46:52;;;;;;;12.27;1.40;;;13.20;80.80;;;;;;5067527;28;20052;-82
2022/05/04 09:49:20;;;;;;;7.10;1.13;;;13.40;81.90;;;;;;5066079;28;20040;-82
2022/05/04 09:51:53;;;;;;;4.25;1.20;;;13.40;79.50;;;;;;5066753;28;20060;-81
2022/05/04 09:54:27;;;;;;;3.13;1.00;;;13.40;79.40;;;;;;5067028;28;20079;-81
2022/05/04 09:56:59;;;;;;;6.75;0.63;;;13.50;78.30;;;;;;5066202;28;20103;-82
2022/05/04 09:59:32;;;;;;;4.70;1.05;;;13.60;76.10;;;;;;5065601;28;20044;-81
2022/05/04 10:01:59;;;;;;;7.45;0.95;;;13.60;75.70;;;;;;5064522;28;20051;-80
2022/05/04 10:04:26;;;;;;;3.10;0.60;;;13.70;76.30;;;;;;5065689;28;20048;-81
2022/05/04 10:06:54;;;;;;;3.72;0.85;;;13.70;74.90;;;;;;5066496;28;20044;-80
2022/05/04 10:09:21;;;;;;;2.67;0.68;;;13.70;75.00;;;;;;5066275;28;20093;-80
2022/05/04 10:11:53;;;;;;;4.57;1.00;;;13.80;74.20;;;;;;5066457;28;20041;-81
2022/05/04 10:14:19;;;;;;;2.72;0.80;;;13.80;72.90;;;;;;5064653;28;20120;-81
2022/05/04 10:16:57;;;;;;;6.72;1.02;;;13.90;73.40;;;;;;5066904;28;20120;-82
2022/05/04 10:19:50;;;;;;;3.28;0.90;;;14.50;72.60;;;;;;5064409;28;20123;-81
2022/05/04 10:22:21;;;;;;;6.05;0.98;;;13.90;70.20;;;;;;5064854;28;20391;-83
2022/05/04 10:24:47;;;;;;;5.53;0.60;;;14.00;72.60;;;;;;5066512;28;20102;-81
2022/05/04 10:27:22;;;;;;;4.57;0.75;;;14.20;71.50;;;;;;5047566;28;20037;-81
2022/05/04 10:32:45;;;;;;;5.43;0.50;;;14.90;70.50;;;;;;5066048;28;20582;-83
2022/05/04 10:35:32;;;;;;;6.28;1.33;;;14.80;69.60;;;;;;5064673;28;20115;-81
2022/05/04 10:37:58;;;;;;;4.72;0.95;;;14.90;65.60;;;;;;5065497;28;20575;-80
2022/05/04 10:40:30;;;;;;;6.00;1.20;;;15.10;68.20;;;;;;5064768;28;20531;-78
2022/05/04 10:42:58;;;;;;;5.50;1.05;;;15.40;69.30;;;;;;5066719;28;20131;-78
2022/05/04 10:45:28;;;;;;;4.45;1.15;;;15.90;67.60;;;;;;5065819;28;20048;-77
2022/05/04 10:48:22;;;;;;;4.45;0.93;;;15.90;64.30;;;;;;5065355;28;20040;-77
2022/05/04 10:50:53;;;;;;;5.07;1.08;;;15.90;62.90;;;;;;5063767;28;20403;-77
2022/05/04 10:53:26;;;;;;;3.97;0.90;;;15.80;63.30;;;;;;5064722;28;20080;-77
2022/05/04 10:56:01;;;;;;;3.50;1.10;;;15.60;63.30;;;;;;5064795;28;20048;-77
2022/05/04 10:58:55;;;;;;;7.22;1.33;;;15.30;63.50;;;;;;5065531;28;20515;-77
2022/05/04 11:01:27;;;;;;;5.65;1.00;;;15.20;63.00;;;;;;5064784;28;20040;-77
2022/05/04 11:04:11;;;;;;;1.58;0.80;;;15.40;66.70;;;;;;5065922;28;20052;-77
2022/05/04 11:07:02;;;;;;;6.18;0.95;;;15.60;64.90;;;;;;5064733;28;20487;-76
2022/05/04 11:09:43;;;;;;;4.43;0.90;;;15.50;61.90;;;;;;5064070;28;20136;-78
2022/05/04 11:12:11;;;;;;;5.32;1.02;;;15.40;62.80;;;;;;5065505;28;20048;-78
2022/05/04 11:14:37;;;;;;;5.45;0.85;;;15.40;62.50;;;;;;5064367;28;20098;-78
2022/05/04 11:17:13;;;;;;;4.47;1.15;;;15.50;62.30;;;;;;5065848;28;20041;-77
2022/05/04 11:19:46;;;;;;;2.90;0.73;;;15.60;60.70;;;;;;5064055;28;20055;-77
2022/05/04 11:22:13;;;;;;;3.90;0.80;;;15.60;60.10;;;;;;5064831;28;20047;-77
2022/05/04 11:24:39;;;;;;;5.88;1.27;;;15.70;60.70;;;;;;5064167;28;20384;-76
2022/05/04 11:27:06;;;;;;;7.30;0.80;;;15.80;60.80;;;;;;5063912;28;20074;-77
2022/05/04 11:29:33;;;;;;;4.82;1.40;;;16.00;60.50;;;;;;5065645;28;20095;-76
2022/05/04 11:32:04;;;;;;;3.22;0.70;;;16.80;60.20;;;;;;5063137;28;20435;-77
2022/05/04 11:34:40;;;;;;;2.70;0.77;;;16.50;60.10;;;;;;5065336;28;20087;-77
2022/05/04 11:37:11;;;;;;;2.70;0.85;;;17.00;57.70;;;;;;5065162;28;20052;-78
2022/05/04 11:39:39;;;;;;;7.40;1.02;;;17.10;58.30;;;;;;5064313;28;20044;-78
2022/05/04 11:42:09;;;;;;;4.00;0.80;;;17.40;58.60;;;;;;5064939;28;20064;-78
2022/05/04 11:44:37;;;;;;;3.60;0.95;;;17.60;57.70;;;;;;5062521;28;20048;-78
2022/05/04 11:47:03;;;;;;;4.63;1.10;;;17.70;56.60;;;;;;5065226;28;20123;-78
2022/05/04 11:49:32;;;;;;;3.63;0.90;;;17.60;56.10;;;;;;5064813;28;20476;-78
2022/05/04 11:51:59;;;;;;;7.43;0.93;;;17.30;55.50;;;;;;5064124;28;20059;-78
2022/05/04 11:54:25;;;;;;;12.20;1.45;;;17.10;56.10;;;;;;5069398;28;20083;-78
2022/05/04 11:56:50;;;;;;;4.70;1.30;;;17.10;56.50;;;;;;5068153;28;20037;-78
2022/05/04 11:59:16;;;;;;;7.72;0.85;;;17.30;56.10;;;;;;5069431;28;20060;-78
2022/05/04 12:01:43;;;;;;;10.93;1.38;;;17.50;55.40;;;;;;5066083;28;20051;-78
2022/05/04 12:04:11;;;;;;;3.63;0.77;;;17.50;54.70;;;;;;5069314;28;20048;-78
2022/05/04 12:06:38;;;;;;;8.20;1.17;;;17.60;54.60;;;;;;5068732;28;20040;-78
2022/05/04 12:09:04;;;;;;;5.32;0.95;;;17.70;54.00;;;;;;5068325;28;20044;-78
2022/05/04 12:11:31;;;;;;;4.15;0.70;;;17.80;54.10;;;;;;5068972;28;20045;-78
2022/05/04 12:13:59;;;;;;;4.25;0.85;;;18.00;54.10;;;;;;5066538;28;20097;-78
2022/05/04 12:16:25;;;;;;;5.40;1.73;;;18.20;53.60;;;;;;5069111;28;20505;-78
2022/05/04 12:18:51;;;;;;;3.28;0.98;;;18.30;53.50;;;;;;5067752;28;20110;-78
2022/05/04 12:21:21;;;;;;;6.82;1.27;;;18.30;52.50;;;;;;5050657;28;20049;-78
2022/05/04 12:23:49;;;;;;;3.88;0.95;;;18.00;51.80;;;;;;5067287;28;20033;-78
2022/05/04 12:26:15;;;;;;;7.28;1.00;;;17.90;52.70;;;;;;5066689;28;20080;-76
2022/05/04 12:34:17;;;;;;;5.28;1.30;;;18.00;52.50;;;;;;5052912;28;20548;-76
2022/05/04 12:36:46;;;;;;;5.40;0.70;;;17.90;52.70;;;;;;5067335;28;20123;-76
2022/05/04 12:39:12;;;;;;;7.40;1.38;;;17.80;52.40;;;;;;5066683;28;20374;-77
2022/05/04 12:41:38;;;;;;;4.32;1.02;;;17.90;52.90;;;;;;5067038;28;20079;-77
2022/05/04 12:44:06;;;;;;;2.92;0.80;;;18.10;52.90;;;;;;5067398;28;20056;-77
2022/05/04 12:46:32;;;;;;;6.10;0.80;;;18.30;52.20;;;;;;5067165;28;20133;-77
2022/05/04 12:48:58;;;;;;;3.15;0.80;;;18.40;52.10;;;;;;5066050;28;20049;-77
2022/05/04 12:51:24;;;;;;;3.63;0.52;;;18.40;52.00;;;;;;5067529;28;20056;-77
2022/05/04 12:53:51;;;;;;;2.85;1.00;;;18.20;51.80;;;;;;5066359;28;20415;-76
2022/05/04 12:59:03;;;;;;;4.60;1.52;;;17.70;52.30;;;;;;5066641;28;20190;-77
2022/05/04 13:01:34;;;;;;;7.05;1.17;;;17.80;52.60;;;;;;5032768;28;20055;-78
2022/05/04 13:04:00;;;;;;;5.93;0.90;;;17.80;52.50;;;;;;5067127;28;20040;-78
2022/05/04 13:06:27;;;;;;;4.88;1.02;;;17.90;52.70;;;;;;5066394;28;20087;-78
2022/05/04 13:08:53;;;;;;;2.42;0.90;;;18.00;51.80;;;;;;5067327;28;20119;-78
2022/05/04 13:11:20;;;;;;;5.18;1.25;;;18.10;51.50;;;;;;5067765;28;20040;-78
2022/05/04 13:13:46;;;;;;;10.05;1.20;;;18.20;51.50;;;;;;5066823;28;20056;-78
2022/05/04 13:16:12;;;;;;;4.03;1.00;;;18.20;51.70;;;;;;5067972;28;20465;-78
2022/05/04 13:18:39;;;;;;;3.28;0.80;;;17.90;51.30;;;;;;5067025;28;20040;-78
2022/05/04 13:21:05;;;;;;;2.70;0.80;;;18.50;51.30;;;;;;5068495;28;20071;-78
2022/05/04 13:23:31;;;;;;;2.20;1.00;;;18.50;50.80;;;;;;5067176;28;20068;-78
2022/05/04 13:25:56;;;;;;;2.85;1.05;;;18.10;50.20;;;;;;5067031;28;20043;-78
2022/05/04 13:28:23;;;;;;;3.85;1.20;;;19.50;51.20;;;;;;5066116;28;20413;-78
2022/05/04 13:30:49;;;;;;;5.57;1.30;;;18.50;50.10;;;;;;5048213;28;20040;-78
2022/05/04 13:33:14;;;;;;;7.28;1.30;;;18.50;50.20;;;;;;5067679;28;20083;-78
2022/05/04 13:35:40;;;;;;;5.13;1.00;;;18.60;50.50;;;;;;5066508;28;20136;-78
2022/05/04 13:38:06;;;;;;;5.80;1.02;;;18.60;50.30;;;;;;5049570;28;20511;-78